Nashville Plt, Maine
Current Conditions -  °F | °C
As of 3:55 PM on Thursday 27 Nov 2014 (Local Time) from KPQI Reporting Station
Overcast Overcast  
Wind Chill: 13°   Ceiling: 2500
Heat Index: 25°   Visibility: 10mi
Dew Point: 16°   Wind: 13mph
Humidity: 69%   Direction: 330°NNW
Pressure: 29.93"   Gusts: 16mph
Location:  46.6213°N, 68.5555°W
Report Text: KPQI 272055Z AUTO 33011G14KT 10SM OVC025 M04/M09 A2993 RMK AO1 52027
Loading
Personal Weather Stations






























Interactive Weather Map New forecast layout! Learn more

10-Day Weather Forecast

Advertisements
Track Severe Weather on mobile